Time;durP1;ratioP1;P1;durP2;ratioP2;P2;SDS_P1;SDS_P2;PMS_P1;PMS_P2;Temp;Humidity;BMP_temperature;BMP_pressure;BME280_temperature;BME280_humidity;BME280_pressure;Samples;Min_cycle;Max_cycle;Signal;HPM_P1;HPM_P2
2023/06/06 00:01:46;;;;;;;3.67;1.10;;;19.60;37.00;;;;;;2354564;53;20963;-70
2023/06/06 00:04:13;;;;;;;2.08;1.00;;;19.40;36.90;;;;;;2354462;53;20975;-71
2023/06/06 00:06:44;;;;;;;2.40;1.10;;;19.50;37.20;;;;;;2603584;52;20923;-71
2023/06/06 00:09:10;;;;;;;2.90;1.12;;;19.50;37.40;;;;;;2602732;52;20938;-71
2023/06/06 00:11:39;;;;;;;2.60;1.10;;;19.40;37.30;;;;;;2354325;53;20959;-71
2023/06/06 00:14:07;;;;;;;2.67;1.00;;;19.40;37.40;;;;;;2354591;53;20987;-70
2023/06/06 00:16:34;;;;;;;2.53;1.10;;;19.30;37.30;;;;;;2603358;52;20946;-71
2023/06/06 00:19:03;;;;;;;2.30;1.08;;;19.40;37.40;;;;;;2354581;53;20950;-71
2023/06/06 00:21:32;;;;;;;2.58;1.05;;;19.30;37.50;;;;;;2589826;53;20983;-71
2023/06/06 00:24:02;;;;;;;2.47;1.00;;;19.20;37.40;;;;;;2582514;52;20926;-71
2023/06/06 00:26:29;;;;;;;2.37;1.00;;;19.30;37.60;;;;;;2355117;53;20982;-71
2023/06/06 00:28:55;;;;;;;2.30;1.00;;;19.20;37.70;;;;;;2354900;53;21471;-71
2023/06/06 00:31:21;;;;;;;2.37;1.00;;;19.10;37.70;;;;;;2603381;52;21807;-72
2023/06/06 00:33:47;;;;;;;2.33;1.02;;;19.10;37.80;;;;;;2354763;53;20930;-71
2023/06/06 00:36:16;;;;;;;3.70;1.08;;;19.00;38.40;;;;;;2603881;52;21883;-70
2023/06/06 00:38:43;;;;;;;2.78;1.20;;;19.00;37.90;;;;;;2354901;53;20923;-72
2023/06/06 00:41:09;;;;;;;2.72;1.30;;;18.90;38.00;;;;;;2352448;53;20995;-71
2023/06/06 00:43:37;;;;;;;2.37;1.10;;;18.90;38.20;;;;;;2603315;52;20915;-71
2023/06/06 00:46:03;;;;;;;2.65;1.20;;;18.80;38.30;;;;;;2603302;52;21030;-70
2023/06/06 00:48:30;;;;;;;2.30;1.10;;;18.80;38.30;;;;;;2603583;52;20970;-72
2023/06/06 00:50:56;;;;;;;2.65;1.12;;;18.80;38.40;;;;;;2354794;54;20970;-70
2023/06/06 00:53:23;;;;;;;2.28;1.00;;;18.80;38.40;;;;;;2353429;53;21082;-72
2023/06/06 00:55:49;;;;;;;2.65;1.23;;;18.70;38.40;;;;;;2603715;52;21471;-71
2023/06/06 00:58:17;;;;;;;2.55;1.20;;;18.70;38.40;;;;;;2603785;52;21317;-71
2023/06/06 01:00:43;;;;;;;2.85;1.40;;;18.70;38.40;;;;;;2603699;52;20943;-71
2023/06/06 01:03:10;;;;;;;2.95;1.27;;;18.60;38.50;;;;;;2602380;52;20982;-71
2023/06/06 01:05:37;;;;;;;2.78;1.08;;;18.60;38.60;;;;;;2593373;52;20903;-73
2023/06/06 01:08:04;;;;;;;2.75;1.30;;;18.50;38.60;;;;;;2599600;52;20915;-70
2023/06/06 01:10:37;;;;;;;3.30;1.50;;;18.50;38.70;;;;;;2354444;53;20935;-71
2023/06/06 01:13:24;;;;;;;2.33;1.20;;;18.50;38.90;;;;;;2354675;53;20970;-71
2023/06/06 01:16:26;;;;;;;2.55;1.25;;;18.50;39.10;;;;;;2604355;52;20963;-71
2023/06/06 01:19:09;;;;;;;2.67;1.10;;;18.50;39.40;;;;;;2562544;53;20935;-72
2023/06/06 01:21:41;;;;;;;2.65;1.00;;;18.50;38.90;;;;;;2604176;52;20931;-74
2023/06/06 01:24:08;;;;;;;2.55;1.23;;;18.50;39.20;;;;;;2602992;52;20974;-71
2023/06/06 01:26:35;;;;;;;4.28;1.23;;;18.50;39.10;;;;;;2603484;52;20903;-71
2023/06/06 01:29:01;;;;;;;2.17;0.90;;;18.40;39.00;;;;;;2347926;54;20989;-73
2023/06/06 01:31:39;;;;;;;3.00;1.23;;;18.40;39.10;;;;;;2597352;53;21007;-71
2023/06/06 01:34:07;;;;;;;2.37;0.93;;;18.40;39.40;;;;;;2594900;52;21400;-70
2023/06/06 01:36:45;;;;;;;2.47;1.00;;;18.40;39.90;;;;;;2354924;53;20946;-71
2023/06/06 01:39:15;;;;;;;2.15;1.12;;;18.40;39.40;;;;;;2355969;53;21050;-71
2023/06/06 01:41:51;;;;;;;2.30;1.00;;;18.30;39.30;;;;;;2603655;52;20922;-73
2023/06/06 01:44:21;;;;;;;3.05;1.40;;;18.30;39.30;;;;;;2603424;52;21000;-71
2023/06/06 01:46:53;;;;;;;3.22;1.40;;;18.30;39.60;;;;;;2355599;53;21550;-72
2023/06/06 01:49:27;;;;;;;2.78;1.10;;;18.20;39.70;;;;;;2603242;52;20926;-70
2023/06/06 01:52:03;;;;;;;2.30;1.25;;;18.20;39.70;;;;;;2355204;53;20911;-72
2023/06/06 01:54:34;;;;;;;2.65;1.20;;;18.10;39.60;;;;;;2354321;53;21002;-70
2023/06/06 01:57:09;;;;;;;2.80;1.30;;;18.10;39.70;;;;;;2357251;53;20939;-71
2023/06/06 01:59:45;;;;;;;2.40;1.00;;;18.10;39.90;;;;;;2599800;52;21104;-71
2023/06/06 02:02:17;;;;;;;3.08;1.20;;;18.00;39.80;;;;;;2595943;52;20977;-72
2023/06/06 02:04:52;;;;;;;3.30;1.27;;;18.00;40.00;;;;;;2563469;52;20968;-71
2023/06/06 02:07:43;;;;;;;2.78;1.10;;;18.00;40.10;;;;;;2566712;52;21024;-70
2023/06/06 02:10:39;;;;;;;2.47;1.00;;;18.00;40.10;;;;;;2592867;52;20900;-72
2023/06/06 02:13:32;;;;;;;2.92;1.30;;;17.90;40.00;;;;;;2353959;54;20970;-71
2023/06/06 02:16:07;;;;;;;2.50;1.30;;;17.90;40.30;;;;;;2344172;54;21017;-72
2023/06/06 02:18:51;;;;;;;2.15;0.93;;;17.90;40.10;;;;;;2607251;52;20967;-73
2023/06/06 02:21:57;;;;;;;3.55;1.35;;;17.80;40.20;;;;;;2634553;52;20983;-70
2023/06/06 02:25:03;;;;;;;2.50;1.10;;;17.80;40.50;;;;;;2356370;53;20930;-70
2023/06/06 02:28:11;;;;;;;1.90;0.90;;;17.80;40.30;;;;;;2565041;52;21394;-70
2023/06/06 02:31:15;;;;;;;;;;;;;;;;;;;;;
2023/06/06 02:34:44;;;;;;;2.53;1.12;;;17.70;40.30;;;;;;2609547;52;20923;-71
2023/06/06 02:41:52;;;;;;;3.05;1.25;;;17.60;40.30;;;;;;2580660;52;20963;-70
2023/06/06 03:52:59;;;;;;;1.80;0.80;;;16.80;41.50;;;;;;2244626;56;21045;-70
2023/06/06 03:57:35;;;;;;;2.67;1.10;;;16.80;41.30;;;;;;2194251;57;21013;-71
2023/06/06 04:15:45;;;;;;;1.48;0.70;;;16.70;41.40;;;;;;2458654;56;21841;-70
2023/06/06 04:24:42;;;;;;;;;;;;;;;;;;;;;
2023/06/06 04:28:17;;;;;;;2.30;0.90;;;16.60;41.80;;;;;;2571931;52;20932;-72
2023/06/06 04:32:58;;;;;;;3.90;1.50;;;16.60;42.20;;;;;;2554815;53;21005;-70
2023/06/06 04:37:14;;;;;;;2.45;1.30;;;16.60;43.20;;;;;;2564459;53;20977;-70
2023/06/06 04:52:55;;;;;;;2.42;1.05;;;16.60;43.00;;;;;;2577250;52;21028;-70
2023/06/06 05:02:30;;;;;;;2.35;1.10;;;16.80;43.30;;;;;;2191984;58;21064;-71
2023/06/06 05:05:48;;;;;;;;;;;;;;;;;;;;;
2023/06/06 05:09:27;;;;;;;3.22;1.50;;;16.90;43.90;;;;;;2364820;57;21194;-70
2023/06/06 05:17:02;;;;;;;;;;;;;;;;;;;;;
2023/06/06 05:20:00;;;;;;;2.97;1.43;;;17.10;44.40;;;;;;2097931;61;21074;-71
2023/06/06 05:23:07;;;;;;;3.30;1.58;;;17.10;44.40;;;;;;2278812;59;21072;-71
2023/06/06 05:26:25;;;;;;;2.75;1.35;;;17.20;44.20;;;;;;2276053;59;21032;-71
2023/06/06 05:29:30;;;;;;;2.97;1.48;;;17.30;44.80;;;;;;2255859;60;21081;-71
2023/06/06 05:32:32;;;;;;;5.18;1.73;;;17.30;44.50;;;;;;2241727;60;21195;-71
2023/06/06 05:36:22;;;;;;;3.20;1.70;;;17.40;44.60;;;;;;2243432;60;21197;-71
2023/06/06 05:41:33;;;;;;;;;;;;;;;;;;;;;
2023/06/06 05:45:39;;;;;;;2.53;1.42;;;17.70;45.20;;;;;;2227286;61;21046;-72
2023/06/06 05:48:14;;;;;;;4.40;1.60;;;17.80;45.10;;;;;;2093144;60;21047;-72
2023/06/06 05:50:43;;;;;;;3.67;1.80;;;17.80;45.00;;;;;;2096792;61;21016;-71
2023/06/06 05:53:10;;;;;;;3.80;1.75;;;17.90;45.00;;;;;;2292039;60;21162;-71
2023/06/06 05:55:36;;;;;;;3.33;1.65;;;18.00;45.10;;;;;;2274614;60;21554;-71
2023/06/06 05:58:03;;;;;;;3.08;1.58;;;18.00;45.20;;;;;;2274930;61;21046;-71
2023/06/06 06:00:30;;;;;;;3.72;1.92;;;18.10;45.30;;;;;;2082017;61;21100;-70
2023/06/06 06:02:58;;;;;;;3.33;1.92;;;18.20;45.50;;;;;;2084229;61;20988;-71
2023/06/06 06:05:28;;;;;;;7.80;2.05;;;18.20;45.50;;;;;;2080128;61;21001;-71
2023/06/06 06:08:03;;;;;;;8.00;2.03;;;18.40;45.70;;;;;;2082133;61;21033;-70
2023/06/06 06:10:35;;;;;;;4.97;1.83;;;18.40;45.80;;;;;;2176926;58;21464;-70
2023/06/06 06:13:02;;;;;;;3.40;1.80;;;18.50;45.70;;;;;;2208855;57;21060;-73
2023/06/06 06:15:31;;;;;;;3.55;1.92;;;18.50;45.70;;;;;;2192917;57;21449;-71
2023/06/06 06:17:58;;;;;;;3.80;2.00;;;18.70;45.90;;;;;;2189287;58;20997;-71
2023/06/06 06:20:24;;;;;;;3.55;2.03;;;18.70;45.90;;;;;;2401441;57;20997;-70
2023/06/06 06:22:51;;;;;;;4.12;2.00;;;18.80;46.00;;;;;;2428933;56;21707;-71
2023/06/06 06:25:19;;;;;;;4.05;1.90;;;18.90;46.00;;;;;;2229368;57;21031;-73
2023/06/06 06:27:46;;;;;;;3.78;1.70;;;19.00;46.10;;;;;;2230232;58;22537;-72
2023/06/06 06:30:13;;;;;;;4.10;2.12;;;19.00;46.10;;;;;;2451505;56;20935;-72
2023/06/06 06:32:40;;;;;;;3.75;2.05;;;19.10;46.20;;;;;;2230348;57;20967;-73
2023/06/06 06:35:08;;;;;;;2.80;1.62;;;19.10;46.20;;;;;;2451587;56;20951;-73
2023/06/06 06:37:39;;;;;;;4.32;2.40;;;19.20;46.30;;;;;;2230100;58;21003;-72
2023/06/06 06:40:10;;;;;;;4.70;2.00;;;19.30;46.30;;;;;;2452700;56;20979;-71
2023/06/06 06:42:40;;;;;;;3.45;2.05;;;19.40;46.60;;;;;;2451558;56;21015;-72
2023/06/06 06:45:09;;;;;;;3.92;2.33;;;19.50;46.40;;;;;;2452820;56;20955;-70
2023/06/06 06:47:36;;;;;;;4.18;2.30;;;19.50;46.40;;;;;;2449357;56;21011;-71
2023/06/06 06:50:06;;;;;;;5.00;2.20;;;19.60;46.40;;;;;;2225243;57;21743;-71
2023/06/06 06:52:35;;;;;;;2.90;1.65;;;19.70;46.50;;;;;;2451987;56;20934;-71
2023/06/06 06:55:03;;;;;;;5.55;2.30;;;19.80;46.60;;;;;;2452056;56;20987;-72
2023/06/06 06:57:31;;;;;;;4.47;2.40;;;19.80;46.50;;;;;;2229198;57;20986;-72
2023/06/06 06:59:58;;;;;;;3.55;1.92;;;19.90;46.50;;;;;;2452162;56;21003;-71
2023/06/06 07:02:27;;;;;;;5.53;2.47;;;20.00;46.60;;;;;;2229778;56;20911;-70
2023/06/06 07:04:57;;;;;;;3.92;2.15;;;20.00;46.60;;;;;;2452023;56;20938;-73
2023/06/06 07:07:24;;;;;;;3.92;2.08;;;20.10;46.70;;;;;;2452408;56;20975;-72
2023/06/06 07:09:53;;;;;;;5.85;2.20;;;20.20;46.70;;;;;;2413091;57;21018;-71
2023/06/06 07:12:20;;;;;;;3.72;2.20;;;20.30;46.70;;;;;;2413073;56;20950;-73
2023/06/06 07:14:49;;;;;;;4.55;1.98;;;20.40;46.80;;;;;;2413225;57;21070;-73
2023/06/06 07:17:15;;;;;;;3.60;2.25;;;20.40;46.80;;;;;;2196647;57;21118;-72
2023/06/06 07:19:43;;;;;;;4.82;2.20;;;20.50;47.00;;;;;;2412567;56;21015;-73
2023/06/06 07:22:10;;;;;;;4.87;2.03;;;20.60;47.10;;;;;;2425566;56;20958;-72
2023/06/06 07:24:36;;;;;;;3.47;2.00;;;20.70;47.10;;;;;;2219451;56;20931;-72
2023/06/06 07:27:04;;;;;;;4.35;2.05;;;20.80;47.10;;;;;;2440997;56;20936;-73
2023/06/06 07:29:34;;;;;;;3.37;1.92;;;20.90;47.20;;;;;;2221549;58;20988;-71
2023/06/06 07:32:01;;;;;;;6.57;2.20;;;21.00;47.40;;;;;;2443040;56;21018;-72
2023/06/06 07:34:27;;;;;;;4.45;2.37;;;21.10;47.40;;;;;;2442762;56;21000;-73
2023/06/06 07:36:53;;;;;;;4.25;2.50;;;21.20;47.50;;;;;;2443334;56;21524;-73
2023/06/06 07:39:43;;;;;;;3.80;2.00;;;21.30;47.40;;;;;;2439408;56;20979;-72
2023/06/06 07:42:09;;;;;;;3.00;1.65;;;21.40;47.40;;;;;;2436894;56;21866;-72
2023/06/06 07:44:39;;;;;;;4.62;2.20;;;21.50;47.40;;;;;;2442451;56;21910;-72
2023/06/06 07:47:06;;;;;;;4.72;2.00;;;21.60;47.40;;;;;;2222435;58;21601;-73
2023/06/06 07:49:33;;;;;;;3.75;2.20;;;21.70;47.40;;;;;;2441806;56;21043;-74
2023/06/06 07:52:17;;;;;;;3.72;1.70;;;21.80;47.50;;;;;;2442052;56;22011;-72
2023/06/06 07:55:11;;;;;;;4.65;2.35;;;21.90;47.60;;;;;;2436181;56;21547;-73
2023/06/06 08:00:06;;;;;;;;;;;;;;;;;;;;;
2023/06/06 08:23:37;;;;;;;;;;;;;;;;;;;;;
2023/06/06 09:43:21;;;;;;;;;;;;;;;;;;;;;
2023/06/06 09:59:25;;;;;;;2.58;1.35;;;25.90;45.70;;;;;;2312154;59;21008;-75
2023/06/06 10:34:28;;;;;;;3.10;1.50;;;26.60;44.80;;;;;;2226044;57;28493;-73
2023/06/06 10:42:30;;;;;;;;;;;;;;;;;;;;;
2023/06/06 10:51:31;;;;;;;2.28;1.20;;;27.80;41.80;;;;;;2363573;57;20983;-74
2023/06/06 10:54:34;;;;;;;2.00;1.00;;;27.90;41.20;;;;;;2434498;55;21029;-73
2023/06/06 10:58:11;;;;;;;;;;;;;;;;;;;;;
2023/06/06 11:08:23;;;;;;;2.75;1.23;;;28.00;40.90;;;;;;2280995;59;21198;-75
2023/06/06 11:12:52;;;;;;;2.62;1.02;;;28.30;40.90;;;;;;2288039;59;21090;-73
2023/06/06 11:16:35;;;;;;;;;;;;;;;;;;;;;
2023/06/06 11:19:51;;;;;;;4.05;1.42;;;28.40;40.80;;;;;;2282191;59;21159;-73
2023/06/06 11:23:02;;;;;;;;;;;;;;;;;;;;;
2023/06/06 11:25:56;;;;;;;3.12;1.60;;;28.50;39.10;;;;;;2295907;59;21050;-74
2023/06/06 11:34:22;;;;;;;2.62;1.40;;;28.60;39.10;;;;;;2278038;59;21085;-71
2023/06/06 11:37:57;;;;;;;;;;;;;;;;;;;;;
2023/06/06 11:41:45;;;;;;;1.87;0.90;;;28.70;38.40;;;;;;2119686;59;22056;-73
2023/06/06 11:45:39;;;;;;;;;;;;;;;;;;;;;
2023/06/06 12:01:17;;;;;;;2.22;1.20;;;28.70;38.60;;;;;;2276930;60;21105;-73
2023/06/06 12:05:34;;;;;;;2.30;0.70;;;28.90;38.60;;;;;;2499727;53;22824;-73
2023/06/06 12:31:03;;;;;;;;;;;;;;;;;;;;;
2023/06/06 12:54:40;;;;;;;2.47;1.23;;;29.40;37.40;;;;;;2279132;58;21033;-74
2023/06/06 12:57:58;;;;;;;2.50;1.27;;;29.50;37.20;;;;;;2494295;54;20988;-72
2023/06/06 13:29:31;;;;;;;3.05;1.25;;;30.20;35.60;;;;;;2485011;55;20998;-73
2023/06/06 13:37:36;;;;;;;3.17;1.62;;;30.20;34.50;;;;;;2132611;59;21256;-72
2023/06/06 13:46:43;;;;;;;2.97;1.37;;;30.10;34.00;;;;;;2310765;59;21110;-75
2023/06/06 13:49:44;;;;;;;2.83;1.23;;;30.20;34.50;;;;;;2112966;59;21474;-72
2023/06/06 13:52:42;;;;;;;;;;;;;;;;;;;;;
2023/06/06 13:55:40;;;;;;;3.17;1.70;;;30.20;34.20;;;;;;2311318;59;21730;-72
2023/06/06 14:02:34;;;;;;;;;;;30.30;33.70;;;;;;2327545;58;21177;-73
2023/06/06 14:09:46;;;;;;;2.40;1.15;;;30.40;33.70;;;;;;2331777;57;20992;-73
2023/06/06 14:16:55;;;;;;;3.75;1.40;;;30.50;33.00;;;;;;2424599;56;22155;-72
2023/06/06 14:28:43;;;;;;;2.60;1.15;;;30.60;33.00;;;;;;2413068;56;21081;-72
2023/06/06 14:31:56;;;;;;;2.62;1.12;;;30.80;33.00;;;;;;2431462;56;21549;-72
2023/06/06 14:35:01;;;;;;;;;;;;;;;;;;;;;
2023/06/06 14:38:55;;;;;;;2.80;1.45;;;30.80;32.30;;;;;;2412599;56;21025;-71
2023/06/06 14:41:41;;;;;;;2.90;1.35;;;30.90;32.20;;;;;;2439897;56;21017;-72
2023/06/06 14:45:00;;;;;;;2.90;1.50;;;30.90;31.90;;;;;;2432044;56;21063;-73
2023/06/06 14:51:28;;;;;;;2.42;1.40;;;30.90;31.90;;;;;;2430774;57;21018;-72
2023/06/06 15:03:50;;;;;;;;;;;;;;;;;;;;;
2023/06/06 15:07:29;;;;;;;;;;;;;;;;;;;;;
2023/06/06 15:11:18;;;;;;;2.53;1.40;;;30.90;30.60;;;;;;2459763;55;21092;-71
2023/06/06 15:14:40;;;;;;;;;;;;;;;;;;;;;
2023/06/06 15:29:57;;;;;;;4.25;1.60;;;30.90;30.40;;;;;;2461660;55;20991;-72
2023/06/06 15:32:47;;;;;;;2.45;1.20;;;30.80;31.00;;;;;;2334755;59;21109;-71
2023/06/06 15:35:44;;;;;;;2.12;1.10;;;30.80;30.70;;;;;;2344749;59;21017;-74
2023/06/06 15:56:02;;;;;;;3.22;1.42;;;30.70;30.10;;;;;;2340961;59;21071;-72
2023/06/06 16:03:09;;;;;;;3.45;1.70;;;30.60;29.80;;;;;;2421474;55;21104;-73
2023/06/06 16:06:00;;;;;;;2.87;1.40;;;30.60;29.60;;;;;;2455676;55;21036;-73
2023/06/06 16:22:09;;;;;;;2.80;1.27;;;30.40;29.40;;;;;;2435640;56;22050;-71
2023/06/06 16:25:16;;;;;;;3.62;1.40;;;30.40;29.40;;;;;;2418863;56;21040;-71
2023/06/06 16:28:13;;;;;;;;;;;30.30;28.80;;;;;;2406844;57;21390;-73
2023/06/06 16:31:40;;;;;;;2.60;1.15;;;30.30;29.50;;;;;;2351004;58;20080;-71
2023/06/06 16:37:44;;;;;;;2.72;1.48;;;30.30;29.10;;;;;;2181851;56;21005;-71
2023/06/06 16:45:21;;;;;;;3.10;1.33;;;30.20;29.10;;;;;;2447270;55;21067;-71
2023/06/06 16:52:30;;;;;;;;;;;;;;;;;;;;;
2023/06/06 16:59:56;;;;;;;3.25;1.40;;;30.00;28.70;;;;;;2402248;56;21031;-74
2023/06/06 17:03:35;;;;;;;3.70;1.70;;;29.90;28.80;;;;;;2409546;57;20995;-72
2023/06/06 17:42:10;;;;;;;4.18;1.80;;;29.90;28.50;;;;;;2386076;57;20988;-74
2023/06/06 17:45:55;;;;;;;;;;;;;;;;;;;;;
2023/06/06 17:49:18;;;;;;;3.28;1.30;;;29.90;29.80;;;;;;2446145;55;21051;-70
2023/06/06 17:52:48;;;;;;;3.42;1.95;;;30.00;29.80;;;;;;2417217;55;21000;-74
2023/06/06 17:55:59;;;;;;;2.75;1.27;;;30.20;29.90;;;;;;2219220;57;21008;-72
2023/06/06 18:22:42;;;;;;;2.15;0.77;;;30.70;30.00;;;;;;2508770;54;28090;-73
2023/06/06 18:28:50;;;;;;;;;;;;;;;;;;;;;
2023/06/06 18:31:45;;;;;;;2.67;1.25;;;32.30;28.70;;;;;;2461263;55;21469;-75
2023/06/06 18:35:14;;;;;;;;;;;;;;;;;;;;;
2023/06/06 18:37:57;;;;;;;2.47;1.20;;;32.20;28.40;;;;;;2241658;56;20974;-72
2023/06/06 18:40:44;;;;;;;2.35;1.10;;;32.10;28.50;;;;;;2242230;56;21038;-71
2023/06/06 18:44:01;;;;;;;;;;;;;;;;;;;;;
2023/06/06 18:47:31;;;;;;;2.20;1.25;;;31.90;28.60;;;;;;2377353;56;20990;-72
2023/06/06 18:50:50;;;;;;;2.78;0.95;;;31.80;28.50;;;;;;2379287;57;21016;-72
2023/06/06 18:53:45;;;;;;;1.87;0.90;;;31.70;28.50;;;;;;2392247;56;20965;-74
2023/06/06 18:57:54;;;;;;;2.90;1.35;;;31.60;28.70;;;;;;2430838;56;21015;-72
2023/06/06 19:01:51;;;;;;;2.28;1.10;;;31.40;28.80;;;;;;2417964;56;21003;-72
2023/06/06 19:04:52;;;;;;;2.17;1.00;;;31.20;28.90;;;;;;2420042;56;21429;-74
2023/06/06 19:07:42;;;;;;;2.12;0.93;;;31.00;29.00;;;;;;2443442;56;21032;-71
2023/06/06 19:10:52;;;;;;;2.25;1.15;;;30.90;29.00;;;;;;2429979;56;21168;-72
2023/06/06 19:13:54;;;;;;;2.97;1.30;;;30.70;29.00;;;;;;2441938;56;21000;-72
2023/06/06 19:20:18;;;;;;;2.90;1.10;;;30.40;29.10;;;;;;2468995;55;20988;-73
2023/06/06 19:25:37;;;;;;;;;;;;;;;;;;;;;
2023/06/06 19:29:54;;;;;;;1.90;0.82;;;29.90;29.30;;;;;;2431605;56;20983;-71
2023/06/06 19:39:25;;;;;;;1.95;0.90;;;29.60;29.40;;;;;;2268374;60;21636;-71
2023/06/06 19:42:27;;;;;;;2.47;1.10;;;29.40;29.50;;;;;;2174836;62;21234;-72
2023/06/06 20:34:28;;;;;;;;;;;;;;;;;;;;;
2023/06/06 20:39:22;;;;;;;1.73;0.80;;;28.00;30.40;;;;;;2509601;53;21728;-71
2023/06/06 20:42:40;;;;;;;2.05;0.95;;;26.00;31.90;;;;;;2519638;54;21004;-72
2023/06/06 20:49:43;;;;;;;;;;;;;;;;;;;;;
2023/06/06 20:52:47;;;;;;;2.22;0.90;;;25.50;32.20;;;;;;2291881;55;21053;-72
2023/06/06 20:56:07;;;;;;;3.95;1.60;;;25.40;32.40;;;;;;2517098;54;21729;-72
2023/06/06 20:59:04;;;;;;;2.35;1.30;;;25.30;33.00;;;;;;2538454;53;20928;-72
2023/06/06 21:02:23;;;;;;;;;;;;;;;;;;;;;
2023/06/06 21:05:09;;;;;;;2.70;1.20;;;25.10;33.30;;;;;;2525666;54;20979;-73
2023/06/06 21:07:55;;;;;;;;;;;25.00;33.30;;;;;;2293958;55;21005;-72
2023/06/06 21:10:47;;;;;;;5.15;1.55;;;25.00;33.30;;;;;;2487666;54;20063;-73
2023/06/06 21:13:35;;;;;;;2.70;1.30;;;24.90;33.30;;;;;;2305889;54;20948;-72
2023/06/06 21:16:49;;;;;;;2.50;1.17;;;24.80;33.50;;;;;;2518120;54;21014;-74
2023/06/06 21:20:10;;;;;;;2.58;1.50;;;24.70;33.80;;;;;;2301941;55;21025;-74
2023/06/06 21:26:54;;;;;;;3.37;1.10;;;24.50;33.70;;;;;;2516719;54;20936;-73
2023/06/06 21:40:17;;;;;;;;;;;;;;;;;;;;;
2023/06/06 21:43:16;;;;;;;2.55;1.00;;;24.30;33.60;;;;;;2500933;54;20939;-73
2023/06/06 21:46:16;;;;;;;2.22;1.08;;;24.20;33.70;;;;;;2537841;53;21045;-74
2023/06/06 21:49:02;;;;;;;2.67;1.30;;;24.20;34.10;;;;;;2533534;54;21833;-73
2023/06/06 21:51:33;;;;;;;1.85;0.95;;;24.10;34.00;;;;;;2517576;54;22031;-74
2023/06/06 21:54:05;;;;;;;2.37;1.10;;;24.10;34.10;;;;;;2513332;54;21006;-72
2023/06/06 21:56:47;;;;;;;2.50;1.10;;;24.00;34.20;;;;;;2509710;55;20980;-73
2023/06/06 22:00:02;;;;;;;2.00;0.98;;;24.00;34.30;;;;;;2516534;54;20947;-72
2023/06/06 22:03:00;;;;;;;2.22;0.85;;;24.00;34.50;;;;;;2495720;54;21092;-74
2023/06/06 22:05:41;;;;;;;3.03;0.75;;;23.90;34.20;;;;;;2495994;54;20965;-72
2023/06/06 22:08:17;;;;;;;2.65;0.95;;;23.90;34.30;;;;;;2499473;55;20918;-74
2023/06/06 22:11:10;;;;;;;2.22;0.82;;;23.90;34.40;;;;;;2547012;53;20936;-73
2023/06/06 22:14:02;;;;;;;2.45;0.95;;;23.80;34.50;;;;;;2528510;54;20992;-72
2023/06/06 22:16:43;;;;;;;2.42;1.20;;;23.80;34.50;;;;;;2517855;54;20950;-72
2023/06/06 22:19:13;;;;;;;2.30;1.10;;;23.80;34.90;;;;;;2274548;55;21864;-72
2023/06/06 22:25:25;;;;;;;2.20;0.80;;;23.70;34.80;;;;;;2512929;54;21136;-71
2023/06/06 22:28:13;;;;;;;2.10;0.98;;;23.60;34.90;;;;;;2518127;54;20974;-72
2023/06/06 22:30:49;;;;;;;2.55;0.93;;;23.60;35.00;;;;;;2515043;54;21415;-72
2023/06/06 22:33:15;;;;;;;2.90;1.20;;;23.50;35.00;;;;;;2288034;54;20958;-72
2023/06/06 22:35:43;;;;;;;1.92;0.93;;;23.50;35.10;;;;;;2286827;55;21060;-73
2023/06/06 22:38:10;;;;;;;3.20;1.35;;;23.40;35.10;;;;;;2287653;56;20945;-74
2023/06/06 22:40:37;;;;;;;2.45;1.02;;;23.40;35.30;;;;;;2515252;54;21655;-72
2023/06/06 22:43:06;;;;;;;2.50;1.15;;;23.40;35.40;;;;;;2490017;54;21033;-73
2023/06/06 22:45:32;;;;;;;2.20;0.98;;;23.30;35.40;;;;;;2521950;54;20977;-72
2023/06/06 22:47:59;;;;;;;2.42;1.00;;;23.30;35.50;;;;;;2288916;55;20945;-73
2023/06/06 22:50:26;;;;;;;2.42;1.10;;;23.20;35.50;;;;;;2288206;55;21226;-73
2023/06/06 22:52:52;;;;;;;2.12;0.90;;;23.20;35.60;;;;;;2288821;56;21525;-72
2023/06/06 22:55:18;;;;;;;2.25;0.90;;;23.20;35.70;;;;;;2533908;53;20918;-74
2023/06/06 22:57:45;;;;;;;1.75;0.82;;;23.10;35.70;;;;;;2287370;55;20937;-72
2023/06/06 23:00:12;;;;;;;2.28;1.05;;;23.10;35.70;;;;;;2521978;54;21025;-72
2023/06/06 23:02:39;;;;;;;2.40;0.90;;;23.10;35.80;;;;;;2522071;54;21419;-74
2023/06/06 23:05:06;;;;;;;1.92;0.90;;;23.00;35.80;;;;;;2287588;54;20937;-73
2023/06/06 23:07:33;;;;;;;2.20;0.90;;;23.00;35.90;;;;;;2523679;54;20945;-72
2023/06/06 23:10:04;;;;;;;2.00;1.02;;;22.90;35.80;;;;;;2300973;54;20926;-73
2023/06/06 23:12:30;;;;;;;2.80;1.35;;;22.90;35.90;;;;;;2521892;54;20974;-72
2023/06/06 23:14:58;;;;;;;2.95;1.15;;;22.80;35.90;;;;;;2288586;56;20953;-72
2023/06/06 23:17:25;;;;;;;3.95;1.10;;;22.70;35.90;;;;;;2522023;54;20914;-72
2023/06/06 23:19:52;;;;;;;2.15;0.98;;;22.70;36.00;;;;;;2288372;56;20938;-73
2023/06/06 23:22:18;;;;;;;2.47;1.20;;;22.60;36.10;;;;;;2287195;56;20946;-73
2023/06/06 23:24:48;;;;;;;2.53;1.15;;;22.60;36.20;;;;;;2502312;54;20961;-73
2023/06/06 23:27:15;;;;;;;3.33;1.40;;;22.60;36.40;;;;;;2287497;55;20981;-72
2023/06/06 23:29:42;;;;;;;3.95;1.48;;;22.50;36.40;;;;;;2286140;54;21040;-72
2023/06/06 23:32:10;;;;;;;2.45;1.20;;;22.50;36.80;;;;;;2522654;54;21845;-72
2023/06/06 23:34:36;;;;;;;2.12;1.00;;;22.50;36.90;;;;;;2521789;54;20926;-72
2023/06/06 23:37:06;;;;;;;2.83;1.40;;;22.40;36.90;;;;;;2522602;54;21017;-72
2023/06/06 23:39:32;;;;;;;2.30;1.10;;;22.40;37.00;;;;;;2287907;54;21925;-72
2023/06/06 23:41:59;;;;;;;2.65;1.08;;;22.40;36.90;;;;;;2306457;54;21003;-73
2023/06/06 23:44:25;;;;;;;2.28;1.15;;;22.30;36.90;;;;;;2520992;54;20955;-71
2023/06/06 23:46:51;;;;;;;3.05;1.20;;;22.30;37.00;;;;;;2522977;54;21858;-72
2023/06/06 23:49:18;;;;;;;2.53;1.20;;;22.30;37.10;;;;;;2308988;55;20972;-74
2023/06/06 23:51:47;;;;;;;2.70;1.20;;;22.30;37.20;;;;;;2554405;54;20923;-71
2023/06/06 23:54:17;;;;;;;3.25;1.15;;;22.30;37.30;;;;;;2303168;55;20904;-72
2023/06/06 23:56:43;;;;;;;2.58;1.12;;;22.30;37.40;;;;;;2546064;54;20912;-73
2023/06/06 23:59:10;;;;;;;2.45;1.25;;;22.20;37.30;;;;;;2314923;55;21043;-72
